Time;durP1;ratioP1;P1;durP2;ratioP2;P2;SDS_P1;SDS_P2;PMS_P1;PMS_P2;Temp;Humidity;BMP_temperature;BMP_pressure;BME280_temperature;BME280_humidity;BME280_pressure;Samples;Min_cycle;Max_cycle;Signal;HPM_P1;HPM_P2
2021/06/13 00:00:38;;;;;;;19.65;7.22;;;12.40;99.90;;;;;;5095699;28;20020;-74
2021/06/13 00:03:04;;;;;;;12.57;7.85;;;12.40;99.90;;;;;;5095708;28;20071;-74
2021/06/13 00:05:30;;;;;;;20.33;7.80;;;12.30;99.90;;;;;;5095120;28;20027;-74
2021/06/13 00:07:55;;;;;;;18.85;8.07;;;12.10;99.90;;;;;;5095644;28;20039;-74
2021/06/13 00:10:22;;;;;;;14.82;7.68;;;12.10;99.90;;;;;;5094433;28;20098;-74
2021/06/13 00:12:48;;;;;;;15.10;7.38;;;12.20;99.90;;;;;;5094098;28;20024;-74
2021/06/13 00:15:19;;;;;;;17.55;7.57;;;12.30;99.90;;;;;;5095521;28;20031;-74
2021/06/13 00:17:45;;;;;;;22.05;8.68;;;12.30;99.90;;;;;;5095484;28;20043;-74
2021/06/13 00:20:16;;;;;;;20.13;7.80;;;12.20;99.90;;;;;;5093495;28;20469;-74
2021/06/13 00:22:42;;;;;;;16.00;7.95;;;12.10;99.90;;;;;;5093491;28;20028;-74
2021/06/13 00:25:09;;;;;;;15.55;7.82;;;12.00;99.90;;;;;;5093130;28;20059;-74
2021/06/13 00:27:37;;;;;;;16.35;8.35;;;11.80;99.90;;;;;;5095005;28;20044;-74
2021/06/13 00:30:04;;;;;;;11.77;7.28;;;11.80;99.90;;;;;;5095164;28;20024;-74
2021/06/13 00:32:29;;;;;;;15.20;7.68;;;11.70;99.90;;;;;;5093884;28;20119;-74
2021/06/13 00:34:55;;;;;;;17.13;7.90;;;11.60;99.90;;;;;;5093934;28;20051;-74
2021/06/13 00:37:21;;;;;;;19.92;8.25;;;11.50;99.90;;;;;;5094535;28;20052;-74
2021/06/13 00:39:47;;;;;;;26.88;8.65;;;11.40;99.90;;;;;;5076375;28;20044;-74
2021/06/13 00:42:12;;;;;;;15.40;7.90;;;11.30;99.90;;;;;;5095004;28;20467;-74
2021/06/13 00:44:38;;;;;;;20.08;8.98;;;11.40;99.90;;;;;;5093122;28;20508;-74
2021/06/13 00:47:04;;;;;;;18.67;8.10;;;11.40;99.90;;;;;;5094906;28;20453;-74
2021/06/13 00:49:29;;;;;;;19.90;8.55;;;11.30;99.90;;;;;;5094292;28;20036;-74
2021/06/13 00:51:55;;;;;;;24.00;8.95;;;11.30;99.90;;;;;;5094836;28;20059;-74
2021/06/13 00:54:21;;;;;;;21.30;8.65;;;11.30;99.90;;;;;;5093518;28;20080;-74
2021/06/13 00:56:47;;;;;;;24.00;8.50;;;11.30;99.90;;;;;;5094745;28;20036;-74
2021/06/13 00:59:14;;;;;;;21.33;8.65;;;11.30;99.90;;;;;;5094610;28;20472;-74
2021/06/13 01:01:39;;;;;;;16.83;8.23;;;11.30;99.90;;;;;;5093190;28;20095;-74
2021/06/13 01:04:07;;;;;;;17.10;8.52;;;11.20;99.90;;;;;;5094345;28;20524;-74
2021/06/13 01:06:56;;;;;;;18.95;8.82;;;11.20;99.90;;;;;;5094039;28;20052;-74
2021/06/13 01:09:28;;;;;;;21.52;8.43;;;11.10;99.90;;;;;;5093887;28;20020;-74
2021/06/13 01:12:02;;;;;;;17.27;8.57;;;11.00;99.90;;;;;;5094477;28;20016;-74
2021/06/13 01:14:36;;;;;;;18.23;8.60;;;11.00;99.90;;;;;;5076070;28;20035;-74
2021/06/13 01:17:13;;;;;;;21.63;8.65;;;10.90;99.90;;;;;;5094425;28;20034;-74
2021/06/13 01:20:09;;;;;;;23.33;9.10;;;10.80;99.90;;;;;;5094246;28;20027;-74
2021/06/13 01:22:59;;;;;;;20.98;9.38;;;10.80;99.90;;;;;;5093867;28;20046;-74
2021/06/13 01:29:00;;;;;;;20.33;8.48;;;10.70;99.90;;;;;;5128122;27;20132;-75
2021/06/13 01:31:31;;;;;;;23.25;8.55;;;10.60;99.90;;;;;;5111208;28;20465;-74
2021/06/13 01:34:00;;;;;;;19.48;9.02;;;10.60;99.90;;;;;;5111888;28;20027;-75
2021/06/13 01:36:28;;;;;;;16.10;8.13;;;10.50;99.90;;;;;;5110318;28;20035;-74
2021/06/13 01:38:56;;;;;;;19.83;9.32;;;10.50;99.90;;;;;;5110033;28;20097;-74
2021/06/13 01:41:27;;;;;;;18.52;8.65;;;10.50;99.90;;;;;;5111731;28;20095;-75
2021/06/13 01:43:55;;;;;;;22.90;8.82;;;10.30;99.90;;;;;;5111675;28;20035;-75
2021/06/13 01:46:23;;;;;;;15.00;7.90;;;10.30;99.90;;;;;;5109749;28;20063;-75
2021/06/13 01:48:51;;;;;;;18.63;9.48;;;10.20;99.90;;;;;;5111331;28;20488;-74
2021/06/13 01:51:17;;;;;;;19.33;9.35;;;10.20;99.90;;;;;;5110078;28;20035;-74
2021/06/13 01:53:45;;;;;;;19.27;9.18;;;10.10;99.90;;;;;;5110029;28;20478;-75
2021/06/13 01:56:13;;;;;;;24.65;9.60;;;10.10;99.90;;;;;;5110902;28;20023;-75
2021/06/13 01:58:41;;;;;;;22.95;9.50;;;10.00;99.90;;;;;;5093054;28;20380;-75
2021/06/13 02:01:08;;;;;;;18.23;8.88;;;10.00;99.90;;;;;;5092559;28;20024;-75
2021/06/13 02:03:36;;;;;;;20.38;9.05;;;10.00;99.90;;;;;;5109837;28;20069;-74
2021/06/13 02:06:03;;;;;;;22.95;9.73;;;9.90;99.90;;;;;;5109367;28;20016;-75
2021/06/13 02:08:33;;;;;;;22.45;9.57;;;9.90;99.90;;;;;;5111194;28;20357;-74
2021/06/13 02:11:00;;;;;;;27.60;9.80;;;9.80;99.90;;;;;;5109737;28;20049;-74
2021/06/13 02:13:28;;;;;;;23.17;10.43;;;9.80;99.90;;;;;;5111133;28;20468;-74
2021/06/13 02:15:55;;;;;;;24.30;10.57;;;9.70;99.90;;;;;;5092651;28;20028;-74
2021/06/13 02:18:23;;;;;;;27.20;10.32;;;9.70;99.90;;;;;;5109158;28;20020;-74
2021/06/13 02:20:50;;;;;;;29.00;11.18;;;9.70;99.90;;;;;;5110956;28;20024;-75
2021/06/13 02:23:16;;;;;;;22.15;10.02;;;9.70;99.90;;;;;;5110887;28;20080;-75
2021/06/13 02:25:41;;;;;;;28.15;10.73;;;9.70;99.90;;;;;;5110591;28;20024;-74
2021/06/13 02:28:07;;;;;;;20.95;10.90;;;9.60;99.90;;;;;;5110056;28;20048;-74
2021/06/13 02:30:38;;;;;;;23.60;10.80;;;9.60;99.90;;;;;;5092108;28;20449;-74
2021/06/13 02:33:06;;;;;;;24.25;10.40;;;9.60;99.90;;;;;;5110736;28;20020;-74
2021/06/13 02:35:32;;;;;;;22.25;10.73;;;9.60;99.90;;;;;;5109220;28;20369;-75
2021/06/13 02:37:58;;;;;;;26.67;10.88;;;9.60;99.90;;;;;;5106341;28;20028;-74
2021/06/13 02:40:25;;;;;;;25.30;10.73;;;9.50;99.90;;;;;;5097029;28;20043;-75
2021/06/13 02:42:50;;;;;;;21.40;10.23;;;9.60;99.90;;;;;;5096960;28;20020;-75
2021/06/13 02:45:21;;;;;;;23.48;10.95;;;9.50;99.90;;;;;;5096636;28;20533;-75
2021/06/13 02:47:47;;;;;;;24.10;10.48;;;9.50;99.90;;;;;;5096802;28;20024;-75
2021/06/13 02:50:13;;;;;;;27.98;11.02;;;9.50;99.90;;;;;;5096542;28;20024;-75
2021/06/13 02:53:11;;;;;;;22.10;10.20;;;9.50;99.90;;;;;;5094959;28;20103;-75
2021/06/13 02:55:45;;;;;;;21.80;10.93;;;9.40;99.90;;;;;;5096097;28;20377;-75
2021/06/13 02:58:22;;;;;;;25.67;11.13;;;9.30;99.90;;;;;;5096362;28;20145;-75
2021/06/13 03:00:50;;;;;;;22.30;11.55;;;9.30;99.90;;;;;;5096583;28;20024;-75
2021/06/13 03:03:20;;;;;;;24.83;11.25;;;9.30;99.90;;;;;;5096595;28;20512;-74
2021/06/13 03:05:46;;;;;;;27.00;12.10;;;9.20;99.90;;;;;;5095530;28;20027;-75
2021/06/13 03:08:13;;;;;;;28.63;12.20;;;9.20;99.90;;;;;;5077757;28;20025;-75
2021/06/13 03:10:39;;;;;;;32.80;12.10;;;9.20;99.90;;;;;;5096441;28;20024;-75
2021/06/13 03:13:05;;;;;;;30.05;12.05;;;9.20;99.90;;;;;;5094522;28;20549;-75
2021/06/13 03:15:32;;;;;;;26.48;11.57;;;9.20;99.90;;;;;;5095081;28;20024;-74
2021/06/13 03:18:00;;;;;;;24.08;11.15;;;9.20;99.90;;;;;;5096015;28;20023;-74
2021/06/13 03:20:25;;;;;;;27.90;12.00;;;9.20;99.90;;;;;;5096233;28;20026;-74
2021/06/13 03:22:51;;;;;;;20.85;11.48;;;9.20;99.90;;;;;;5096231;28;20099;-74
2021/06/13 03:25:18;;;;;;;28.35;11.57;;;9.20;99.90;;;;;;5096152;28;20024;-74
2021/06/13 03:27:44;;;;;;;27.88;11.38;;;9.20;99.90;;;;;;5094043;28;20131;-74
2021/06/13 03:30:11;;;;;;;27.02;11.63;;;9.20;99.90;;;;;;5096063;28;20103;-75
2021/06/13 03:32:37;;;;;;;27.42;11.43;;;9.20;99.90;;;;;;5077480;28;20476;-74
2021/06/13 03:35:05;;;;;;;26.67;11.88;;;9.20;99.90;;;;;;5094996;28;20056;-74
2021/06/13 03:37:31;;;;;;;26.63;10.65;;;9.20;99.90;;;;;;5077545;28;20047;-74
2021/06/13 03:39:57;;;;;;;26.67;11.80;;;9.20;99.90;;;;;;5095305;28;20470;-75
2021/06/13 03:42:23;;;;;;;25.50;11.27;;;9.30;99.90;;;;;;5094522;28;20028;-74
2021/06/13 03:44:51;;;;;;;26.85;11.98;;;9.30;99.90;;;;;;5095777;28;20144;-75
2021/06/13 03:47:17;;;;;;;23.35;11.15;;;9.30;99.90;;;;;;5095620;28;20020;-72
2021/06/13 03:49:46;;;;;;;21.52;11.65;;;9.40;99.90;;;;;;5094835;28;20093;-74
2021/06/13 03:52:12;;;;;;;25.30;10.82;;;9.50;99.90;;;;;;5094106;28;20427;-74
2021/06/13 03:54:37;;;;;;;28.73;11.00;;;9.50;99.90;;;;;;5094082;28;20024;-74
2021/06/13 03:57:06;;;;;;;26.52;10.98;;;9.60;99.90;;;;;;5095499;28;20081;-74
2021/06/13 03:59:33;;;;;;;28.35;11.00;;;9.70;99.90;;;;;;5093702;28;20052;-74
2021/06/13 04:02:01;;;;;;;27.02;11.40;;;9.80;99.90;;;;;;5095124;28;20027;-74
2021/06/13 04:04:27;;;;;;;23.60;10.30;;;9.80;99.90;;;;;;5094871;28;20028;-74
2021/06/13 04:06:54;;;;;;;21.73;9.88;;;9.90;99.90;;;;;;5093569;28;20027;-74
2021/06/13 04:09:20;;;;;;;29.67;11.65;;;9.90;99.90;;;;;;5093881;28;20016;-74
2021/06/13 04:11:47;;;;;;;29.40;11.15;;;10.00;99.90;;;;;;5094058;28;20023;-74
2021/06/13 04:14:14;;;;;;;23.00;10.40;;;10.10;99.90;;;;;;5095188;28;20373;-74
2021/06/13 04:16:42;;;;;;;19.77;10.20;;;10.40;99.90;;;;;;5093336;28;20492;-74
2021/06/13 04:19:09;;;;;;;16.73;9.52;;;10.70;99.90;;;;;;5093785;28;20028;-74
2021/06/13 04:21:35;;;;;;;17.50;9.40;;;10.90;99.90;;;;;;5093615;28;20078;-74
2021/06/13 04:24:02;;;;;;;25.77;9.50;;;11.20;99.90;;;;;;5093300;28;20108;-74
2021/06/13 04:26:29;;;;;;;24.23;9.13;;;11.30;99.90;;;;;;5094459;28;20097;-74
2021/06/13 04:28:55;;;;;;;20.25;9.00;;;11.50;99.90;;;;;;5094927;28;20039;-75
2021/06/13 04:31:21;;;;;;;20.55;8.95;;;11.70;99.90;;;;;;5094869;28;20346;-75
2021/06/13 04:33:48;;;;;;;21.33;8.35;;;12.20;99.90;;;;;;5093134;28;20023;-74
2021/06/13 04:36:17;;;;;;;21.63;8.82;;;12.60;99.90;;;;;;5094510;28;20432;-75
2021/06/13 04:38:43;;;;;;;21.92;7.72;;;13.50;99.90;;;;;;5094757;28;20020;-75
2021/06/13 04:41:09;;;;;;;19.63;7.13;;;14.80;99.90;;;;;;5094686;28;20051;-75
2021/06/13 04:43:36;;;;;;;16.88;6.95;;;16.00;99.90;;;;;;5094636;28;20020;-75
2021/06/13 04:46:04;;;;;;;16.33;6.88;;;16.90;99.90;;;;;;5094544;28;20095;-75
2021/06/13 04:48:29;;;;;;;16.98;6.30;;;17.50;99.90;;;;;;5094600;28;20012;-73
2021/06/13 04:51:00;;;;;;;14.93;6.20;;;17.90;99.90;;;;;;5094509;28;20400;-76
2021/06/13 04:56:49;;;;;;;14.85;6.57;;;18.30;99.90;;;;;;5171248;27;70866;-74
2021/06/13 04:59:15;;;;;;;13.32;6.30;;;17.80;99.90;;;;;;5152517;27;20559;-74
2021/06/13 05:01:41;;;;;;;13.27;6.47;;;18.50;99.90;;;;;;5151174;27;20117;-74
2021/06/13 05:04:07;;;;;;;13.63;6.20;;;18.90;99.90;;;;;;5152990;27;20023;-74
2021/06/13 05:06:33;;;;;;;13.00;6.65;;;18.90;99.90;;;;;;5152934;27;20023;-74
2021/06/13 05:09:00;;;;;;;14.18;6.70;;;19.10;99.90;;;;;;5152554;27;20019;-74
2021/06/13 05:11:26;;;;;;;14.77;6.60;;;19.60;99.90;;;;;;5152288;27;20115;-74
2021/06/13 05:13:51;;;;;;;11.10;6.15;;;19.70;99.90;;;;;;5151388;27;20054;-75
2021/06/13 05:16:17;;;;;;;14.32;6.15;;;19.70;99.90;;;;;;5150896;27;20458;-75
2021/06/13 05:18:43;;;;;;;9.95;5.65;;;19.90;99.90;;;;;;5152764;27;20031;-74
2021/06/13 05:21:08;;;;;;;13.27;6.03;;;19.70;99.90;;;;;;5152367;27;20372;-74
2021/06/13 05:23:34;;;;;;;13.57;6.57;;;19.50;99.90;;;;;;5152601;27;20046;-75
2021/06/13 05:26:00;;;;;;;12.77;6.20;;;20.10;99.90;;;;;;5152082;27;20425;-75
2021/06/13 05:28:26;;;;;;;14.57;5.93;;;20.60;99.90;;;;;;5152333;27;20030;-75
2021/06/13 05:30:52;;;;;;;13.63;6.45;;;20.70;99.90;;;;;;5152526;27;20023;-75
2021/06/13 05:33:18;;;;;;;14.23;6.35;;;21.60;99.90;;;;;;5152499;27;20049;-74
2021/06/13 05:35:44;;;;;;;8.60;5.57;;;20.90;99.90;;;;;;5152118;27;20076;-75
2021/06/13 05:38:10;;;;;;;12.55;6.82;;;20.50;99.90;;;;;;5151209;27;20151;-75
2021/06/13 05:40:37;;;;;;;12.05;6.15;;;20.50;99.90;;;;;;5150478;27;20441;-75
2021/06/13 05:43:05;;;;;;;11.10;5.88;;;21.40;99.90;;;;;;5152273;27;20080;-75
2021/06/13 05:45:32;;;;;;;12.07;6.28;;;21.30;99.90;;;;;;5151992;27;20483;-75
2021/06/13 05:47:58;;;;;;;14.18;5.93;;;21.10;99.90;;;;;;5151889;27;20027;-75
2021/06/13 05:50:24;;;;;;;16.02;6.25;;;21.70;99.90;;;;;;5151842;27;20411;-75
2021/06/13 05:52:50;;;;;;;10.30;5.75;;;21.60;99.90;;;;;;5152061;27;20030;-74
2021/06/13 05:55:17;;;;;;;13.00;6.50;;;20.80;99.90;;;;;;5150327;27;20404;-74
2021/06/13 05:57:44;;;;;;;15.23;6.70;;;20.00;99.90;;;;;;5151998;27;20022;-75
2021/06/13 06:00:14;;;;;;;15.88;7.05;;;19.00;99.90;;;;;;5150221;27;20098;-75
2021/06/13 06:02:42;;;;;;;14.23;6.40;;;19.20;99.90;;;;;;5151894;27;20018;-76
2021/06/13 06:05:09;;;;;;;15.10;6.32;;;19.00;99.90;;;;;;5151600;27;20023;-76
2021/06/13 06:07:35;;;;;;;16.10;7.13;;;20.60;99.90;;;;;;5138663;27;20039;-76
2021/06/13 06:10:00;;;;;;;15.02;6.38;;;20.90;99.90;;;;;;5137648;27;20146;-76
2021/06/13 06:12:26;;;;;;;14.40;6.43;;;21.20;99.90;;;;;;5137854;27;20110;-75
2021/06/13 06:14:52;;;;;;;14.02;6.28;;;20.70;99.90;;;;;;5137786;27;20038;-75
2021/06/13 06:17:18;;;;;;;12.82;6.43;;;21.20;99.90;;;;;;5137816;27;20023;-75
2021/06/13 06:19:44;;;;;;;18.42;6.57;;;21.20;99.90;;;;;;5137796;27;20023;-75
2021/06/13 06:22:09;;;;;;;11.60;6.50;;;20.40;99.90;;;;;;5137434;27;20380;-75
2021/06/13 06:24:36;;;;;;;17.05;6.65;;;21.10;99.90;;;;;;5137640;27;20022;-76
2021/06/13 06:27:02;;;;;;;13.73;6.15;;;21.30;99.90;;;;;;5136161;27;20026;-75
2021/06/13 06:29:27;;;;;;;13.65;6.63;;;20.60;99.90;;;;;;5136087;27;20039;-75
2021/06/13 06:31:53;;;;;;;10.63;6.57;;;20.40;99.90;;;;;;5118936;27;20015;-75
2021/06/13 06:34:19;;;;;;;14.13;6.65;;;20.80;99.90;;;;;;5135561;27;20027;-75
2021/06/13 06:36:46;;;;;;;15.30;6.47;;;20.90;99.90;;;;;;5135619;27;20077;-75
2021/06/13 06:39:13;;;;;;;14.23;6.95;;;21.30;99.90;;;;;;5136229;27;20461;-76
2021/06/13 06:41:38;;;;;;;14.77;6.38;;;21.80;99.90;;;;;;5118863;27;20024;-76
2021/06/13 06:44:05;;;;;;;17.95;6.72;;;21.20;99.90;;;;;;5137293;27;20075;-76
2021/06/13 06:46:31;;;;;;;11.27;5.72;;;21.40;99.90;;;;;;5135762;27;20414;-76
2021/06/13 06:48:57;;;;;;;11.57;6.38;;;22.40;99.90;;;;;;5135986;27;20064;-76
2021/06/13 06:51:23;;;;;;;13.35;6.00;;;22.00;99.50;;;;;;5135677;27;20064;-75
2021/06/13 06:53:49;;;;;;;12.35;5.70;;;21.10;99.90;;;;;;5136557;27;20019;-75
2021/06/13 06:56:15;;;;;;;13.25;6.35;;;22.00;99.90;;;;;;5136317;27;20053;-76
2021/06/13 06:58:40;;;;;;;11.65;5.82;;;22.30;99.80;;;;;;5136950;27;20023;-75
2021/06/13 07:01:06;;;;;;;12.65;5.53;;;23.50;97.80;;;;;;5136942;27;20042;-75
2021/06/13 07:03:31;;;;;;;10.77;4.97;;;23.40;96.30;;;;;;5135804;27;20034;-75
2021/06/13 07:05:57;;;;;;;9.48;5.63;;;25.20;93.40;;;;;;5136863;27;20027;-75
2021/06/13 07:08:22;;;;;;;12.82;5.80;;;25.10;92.20;;;;;;5136802;27;20034;-76
2021/06/13 07:10:48;;;;;;;13.95;5.05;;;24.40;92.90;;;;;;5135636;27;20453;-76
2021/06/13 07:13:14;;;;;;;10.18;5.60;;;23.90;93.10;;;;;;5136740;27;20023;-76
2021/06/13 07:15:40;;;;;;;9.85;5.47;;;23.70;92.80;;;;;;5117726;27;20031;-75
2021/06/13 07:18:05;;;;;;;11.77;4.65;;;23.90;93.60;;;;;;5134383;27;20019;-75
2021/06/13 07:20:31;;;;;;;12.20;5.57;;;23.30;91.20;;;;;;5118671;27;20019;-75
2021/06/13 07:22:56;;;;;;;11.52;4.95;;;22.70;93.20;;;;;;5136455;27;20030;-75
2021/06/13 07:25:22;;;;;;;11.18;5.32;;;22.40;93.10;;;;;;5136383;27;20039;-75
2021/06/13 07:27:47;;;;;;;10.05;5.03;;;22.60;92.90;;;;;;5134528;27;20027;-67
2021/06/13 07:30:15;;;;;;;11.07;5.28;;;22.80;93.40;;;;;;5135201;27;20023;-68
2021/06/13 07:32:41;;;;;;;7.43;4.38;;;23.80;90.90;;;;;;5136362;27;20078;-67
2021/06/13 07:35:09;;;;;;;7.35;3.45;;;23.70;90.90;;;;;;5134358;27;20475;-67
2021/06/13 07:37:35;;;;;;;9.82;4.45;;;23.90;84.30;;;;;;5136137;27;20087;-67
2021/06/13 07:40:00;;;;;;;10.43;4.35;;;22.90;85.30;;;;;;5136137;27;20511;-68
2021/06/13 07:42:26;;;;;;;7.97;4.30;;;23.50;90.70;;;;;;5136121;27;20019;-68
2021/06/13 07:44:52;;;;;;;11.82;3.88;;;24.00;87.60;;;;;;5136047;27;20138;-68
2021/06/13 07:47:18;;;;;;;7.18;3.95;;;24.40;82.50;;;;;;5135764;27;20357;-68
2021/06/13 07:49:45;;;;;;;7.40;4.30;;;24.20;83.50;;;;;;5134563;27;20031;-68
2021/06/13 07:52:11;;;;;;;10.05;4.22;;;23.40;84.60;;;;;;5134504;27;20464;-67
2021/06/13 07:54:37;;;;;;;12.48;4.35;;;23.00;87.40;;;;;;5135594;27;20069;-68
2021/06/13 07:57:02;;;;;;;6.15;4.43;;;23.40;89.30;;;;;;5135785;27;20436;-68
2021/06/13 07:59:28;;;;;;;10.30;4.45;;;23.80;84.80;;;;;;5135833;27;20491;-67
2021/06/13 08:01:53;;;;;;;7.80;3.80;;;24.20;83.20;;;;;;5135464;27;20046;-67
2021/06/13 08:04:19;;;;;;;10.98;4.28;;;24.00;79.70;;;;;;5133881;27;20471;-67
2021/06/13 08:06:45;;;;;;;8.23;4.15;;;23.70;81.00;;;;;;5135382;27;20051;-67
2021/06/13 08:09:10;;;;;;;10.35;3.92;;;23.40;77.90;;;;;;5135571;27;20153;-67
2021/06/13 08:11:36;;;;;;;9.25;4.30;;;23.70;78.50;;;;;;5133734;27;20076;-67
2021/06/13 08:14:02;;;;;;;6.85;4.20;;;24.60;81.90;;;;;;5135420;27;20031;-67
2021/06/13 08:16:27;;;;;;;9.38;4.38;;;24.80;79.10;;;;;;5135494;27;20019;-67
2021/06/13 08:18:53;;;;;;;8.18;3.67;;;24.90;80.50;;;;;;5135093;27;20461;-67
2021/06/13 08:21:19;;;;;;;7.40;3.92;;;25.00;75.50;;;;;;5135422;27;20452;-67
2021/06/13 08:23:44;;;;;;;9.75;4.05;;;25.40;73.80;;;;;;5135141;27;20026;-68
2021/06/13 08:26:10;;;;;;;7.20;3.85;;;25.30;76.90;;;;;;5135070;27;20029;-68
2021/06/13 08:28:36;;;;;;;6.78;3.85;;;25.30;73.90;;;;;;5135275;27;20028;-67
2021/06/13 08:31:01;;;;;;;7.72;3.97;;;25.50;74.50;;;;;;5134991;27;20030;-67
2021/06/13 08:33:27;;;;;;;8.80;4.00;;;25.50;71.40;;;;;;5134919;27;20102;-68
2021/06/13 08:35:53;;;;;;;6.60;3.35;;;25.00;69.60;;;;;;5135160;27;20027;-67
2021/06/13 08:38:21;;;;;;;7.13;3.53;;;25.40;70.30;;;;;;5134007;27;20018;-68
2021/06/13 08:40:47;;;;;;;6.45;3.53;;;24.40;70.10;;;;;;5134648;27;20031;-68
2021/06/13 08:43:13;;;;;;;5.38;3.67;;;24.40;72.00;;;;;;5116209;28;20026;-67
2021/06/13 08:45:39;;;;;;;6.95;3.60;;;23.80;71.20;;;;;;5134511;27;20027;-67
2021/06/13 08:48:07;;;;;;;6.88;3.30;;;23.40;71.10;;;;;;5134988;27;20042;-68
2021/06/13 08:50:35;;;;;;;6.13;3.47;;;24.60;72.50;;;;;;5134800;27;20024;-68
2021/06/13 08:53:02;;;;;;;7.63;3.67;;;24.50;68.90;;;;;;5116172;28;20365;-68
2021/06/13 08:55:29;;;;;;;6.30;3.63;;;23.80;72.60;;;;;;5133140;28;20043;-67
2021/06/13 08:57:55;;;;;;;8.25;3.65;;;24.60;72.10;;;;;;5134729;27;20499;-67
2021/06/13 09:00:24;;;;;;;10.63;3.63;;;24.90;69.80;;;;;;5134973;27;20019;-68
2021/06/13 09:02:50;;;;;;;6.15;3.05;;;25.00;67.80;;;;;;5133441;28;20026;-67
2021/06/13 09:05:19;;;;;;;4.65;2.92;;;25.10;62.30;;;;;;5134351;27;20019;-67
2021/06/13 09:07:48;;;;;;;6.60;3.63;;;25.40;65.90;;;;;;5134859;27;20029;-67
2021/06/13 09:10:18;;;;;;;8.30;3.85;;;26.10;63.90;;;;;;5134824;27;20020;-67
2021/06/13 09:12:43;;;;;;;8.38;3.85;;;26.60;63.70;;;;;;5134557;27;20031;-67
2021/06/13 09:15:09;;;;;;;6.72;3.83;;;25.40;64.70;;;;;;5134557;28;20034;-67
2021/06/13 09:17:42;;;;;;;5.90;3.40;;;24.80;64.10;;;;;;5134735;28;20027;-67
2021/06/13 09:20:27;;;;;;;5.25;3.33;;;24.70;62.60;;;;;;5133253;28;20015;-67
2021/06/13 09:23:15;;;;;;;6.70;3.40;;;25.20;61.50;;;;;;5134687;27;20038;-67
2021/06/13 09:25:42;;;;;;;7.50;3.22;;;26.30;63.30;;;;;;5134150;27;20023;-67
2021/06/13 09:28:16;;;;;;;8.05;3.30;;;26.40;61.20;;;;;;5134692;27;20016;-67
2021/06/13 09:30:47;;;;;;;6.03;3.45;;;26.20;58.60;;;;;;5132870;28;20464;-67
2021/06/13 09:33:17;;;;;;;7.95;3.60;;;25.80;61.40;;;;;;5134553;27;20103;-67
2021/06/13 09:35:45;;;;;;;5.25;3.22;;;25.30;61.30;;;;;;5134228;27;20072;-67
2021/06/13 09:38:22;;;;;;;6.97;3.72;;;25.70;60.20;;;;;;5133532;28;20023;-67
2021/06/13 09:40:52;;;;;;;7.90;3.53;;;26.30;58.90;;;;;;5134276;27;20019;-68
2021/06/13 09:43:24;;;;;;;6.25;3.20;;;26.80;57.40;;;;;;5138494;27;20022;-67
2021/06/13 09:45:52;;;;;;;5.68;3.22;;;26.30;58.60;;;;;;5138416;27;20092;-67
2021/06/13 09:48:18;;;;;;;7.80;2.92;;;25.80;60.30;;;;;;5138326;27;20026;-68
2021/06/13 09:50:46;;;;;;;4.65;2.90;;;26.10;56.60;;;;;;5137168;27;20380;-67
2021/06/13 09:53:22;;;;;;;5.78;3.30;;;26.70;55.80;;;;;;5137755;27;20475;-68
2021/06/13 09:56:01;;;;;;;5.80;3.13;;;26.80;55.20;;;;;;5137630;27;20050;-68
2021/06/13 09:58:27;;;;;;;7.72;3.13;;;26.90;54.60;;;;;;5137656;27;20457;-68
2021/06/13 10:00:52;;;;;;;5.68;3.22;;;27.20;56.20;;;;;;5137859;27;20054;-68
2021/06/13 10:03:21;;;;;;;6.63;3.17;;;26.90;55.60;;;;;;5137755;27;20046;-68
2021/06/13 10:05:56;;;;;;;6.20;3.40;;;26.50;54.70;;;;;;5138007;27;20087;-68
2021/06/13 10:08:22;;;;;;;6.75;3.10;;;26.40;58.20;;;;;;5102818;27;20483;-67
2021/06/13 10:10:47;;;;;;;5.82;3.08;;;26.20;55.70;;;;;;5137930;27;20027;-67
2021/06/13 10:13:13;;;;;;;6.78;3.25;;;26.90;58.50;;;;;;5136065;27;20444;-67
2021/06/13 10:15:39;;;;;;;5.07;3.20;;;27.00;55.20;;;;;;5137728;27;20037;-67
2021/06/13 10:18:09;;;;;;;5.72;3.35;;;26.90;56.70;;;;;;5137781;27;20050;-67
2021/06/13 10:20:35;;;;;;;5.90;3.20;;;27.90;54.40;;;;;;5137706;27;20023;-67
2021/06/13 10:23:04;;;;;;;12.80;3.50;;;27.20;53.60;;;;;;5137709;27;20087;-67
2021/06/13 10:25:30;;;;;;;5.65;3.17;;;26.40;55.30;;;;;;5119333;27;20051;-67
2021/06/13 10:27:57;;;;;;;7.88;3.38;;;25.40;55.00;;;;;;5137559;27;20075;-68
2021/06/13 10:30:23;;;;;;;7.38;3.20;;;26.80;55.10;;;;;;5137601;27;20449;-68
2021/06/13 10:32:48;;;;;;;6.53;3.45;;;27.20;54.50;;;;;;5137543;27;20031;-68
2021/06/13 10:35:15;;;;;;;6.25;3.03;;;27.00;52.00;;;;;;5136859;27;20490;-67
2021/06/13 10:37:41;;;;;;;4.15;2.60;;;26.60;52.50;;;;;;5137454;27;20026;-68
2021/06/13 10:40:08;;;;;;;4.32;2.42;;;27.10;52.20;;;;;;5137061;27;20398;-67
2021/06/13 10:42:36;;;;;;;5.35;3.00;;;26.20;52.20;;;;;;5137385;27;20031;-67
2021/06/13 10:45:03;;;;;;;5.43;3.28;;;25.10;54.40;;;;;;5137294;27;20023;-67
2021/06/13 10:47:30;;;;;;;6.78;2.95;;;25.20;54.70;;;;;;5136970;27;20023;-67
2021/06/13 10:52:33;;;;;;;5.40;2.95;;;25.30;53.90;;;;;;5145238;27;20113;-66
2021/06/13 10:55:01;;;;;;;9.18;3.47;;;24.90;55.20;;;;;;5111504;28;20028;-66
2021/06/13 10:57:33;;;;;;;7.15;3.60;;;24.20;58.30;;;;;;5111719;28;20042;-66
2021/06/13 11:00:01;;;;;;;5.28;3.20;;;23.70;57.20;;;;;;5110253;28;20073;-66
2021/06/13 11:02:45;;;;;;;8.18;3.45;;;23.60;59.00;;;;;;5111705;28;20382;-66
2021/06/13 11:05:11;;;;;;;5.25;3.38;;;23.40;60.20;;;;;;5111568;28;20047;-66
2021/06/13 11:10:16;;;;;;;6.57;3.80;;;23.80;59.00;;;;;;5126720;27;20455;-66
2021/06/13 11:18:19;;;;;;;5.30;3.40;;;23.80;60.50;;;;;;5128080;27;20132;-65
2021/06/13 11:21:12;;;;;;;5.60;3.40;;;23.80;56.30;;;;;;5111264;28;20028;-65
2021/06/13 11:23:43;;;;;;;5.60;2.87;;;24.00;58.50;;;;;;5111534;28;20024;-65
2021/06/13 11:26:27;;;;;;;6.70;3.83;;;23.70;58.80;;;;;;5111475;28;20073;-65
2021/06/13 11:28:52;;;;;;;6.97;3.08;;;23.80;58.50;;;;;;5111625;28;20423;-67
2021/06/13 11:31:21;;;;;;;6.72;3.00;;;23.60;58.00;;;;;;5111653;28;20035;-67
2021/06/13 11:36:33;;;;;;;10.73;3.63;;;23.70;59.30;;;;;;5127983;27;20132;-67
2021/06/13 11:39:17;;;;;;;6.53;3.08;;;23.40;61.50;;;;;;5111564;28;20027;-67
2021/06/13 11:41:47;;;;;;;7.15;3.15;;;23.70;59.10;;;;;;5110556;28;20027;-67
2021/06/13 11:44:35;;;;;;;5.18;2.80;;;23.70;59.40;;;;;;5111494;28;20027;-67
2021/06/13 11:47:19;;;;;;;7.45;3.15;;;23.40;59.90;;;;;;5110541;28;20180;-65
2021/06/13 11:49:47;;;;;;;6.00;3.25;;;23.20;60.40;;;;;;5111091;28;20047;-67
2021/06/13 11:52:13;;;;;;;7.35;3.25;;;23.50;61.10;;;;;;5110104;28;20119;-65
2021/06/13 11:54:44;;;;;;;7.03;2.90;;;23.70;58.10;;;;;;5111265;28;20024;-67
2021/06/13 11:57:19;;;;;;;6.18;2.72;;;23.90;58.30;;;;;;5110421;28;20093;-67
2021/06/13 11:59:46;;;;;;;6.57;3.15;;;24.10;57.50;;;;;;5111157;28;20012;-67
2021/06/13 12:02:16;;;;;;;5.97;3.13;;;23.70;59.00;;;;;;5111390;28;20038;-67
2021/06/13 12:04:44;;;;;;;7.28;3.20;;;24.10;58.40;;;;;;5109868;28;20070;-67
2021/06/13 12:07:13;;;;;;;6.38;2.92;;;23.80;57.20;;;;;;5111002;28;20015;-67
2021/06/13 12:09:39;;;;;;;4.75;2.45;;;23.90;57.30;;;;;;5110746;28;20024;-67
2021/06/13 12:12:07;;;;;;;4.70;2.63;;;23.60;58.20;;;;;;5111274;28;20031;-67
2021/06/13 12:17:14;;;;;;;4.85;2.80;;;24.00;56.50;;;;;;5145158;27;20061;-66
2021/06/13 12:28:11;;;;;;;6.70;3.28;;;24.40;58.50;;;;;;5111095;28;20066;-65
2021/06/13 12:30:39;;;;;;;6.75;3.15;;;24.00;57.20;;;;;;5111525;28;20027;-65
2021/06/13 12:33:08;;;;;;;7.65;3.25;;;23.40;59.70;;;;;;5110616;28;20020;-67
2021/06/13 12:35:38;;;;;;;6.80;3.58;;;22.90;59.20;;;;;;5111746;28;20024;-67
2021/06/13 12:38:16;;;;;;;8.20;3.50;;;22.80;61.20;;;;;;5110165;28;20043;-67
2021/06/13 12:40:52;;;;;;;7.60;3.00;;;22.90;59.10;;;;;;5111282;28;20443;-67
2021/06/13 12:43:45;;;;;;;5.40;3.20;;;23.60;60.60;;;;;;5111556;28;20020;-67
2021/06/13 12:46:14;;;;;;;6.20;2.93;;;23.80;57.40;;;;;;5111527;28;20092;-67
2021/06/13 12:48:41;;;;;;;7.32;3.20;;;24.00;57.50;;;;;;5109619;28;20028;-67
2021/06/13 12:51:07;;;;;;;7.03;3.40;;;23.90;57.20;;;;;;5111138;28;20023;-67
2021/06/13 12:53:35;;;;;;;6.65;3.53;;;24.20;57.00;;;;;;5111088;28;20020;-67
2021/06/13 12:56:01;;;;;;;6.28;3.05;;;24.00;57.30;;;;;;5111326;28;20019;-67
2021/06/13 12:58:31;;;;;;;4.72;2.70;;;23.80;57.20;;;;;;5111293;28;20051;-67
2021/06/13 13:00:58;;;;;;;9.75;3.38;;;23.30;58.80;;;;;;5109693;28;20081;-67
2021/06/13 13:03:24;;;;;;;6.22;2.90;;;23.60;59.10;;;;;;5110903;28;20023;-67
2021/06/13 13:06:07;;;;;;;5.30;2.95;;;23.80;58.10;;;;;;5110884;28;20039;-67
2021/06/13 13:08:50;;;;;;;5.53;3.00;;;23.80;57.80;;;;;;5109683;28;20020;-67
2021/06/13 13:11:24;;;;;;;7.32;2.90;;;24.30;58.50;;;;;;5109499;28;20028;-67
2021/06/13 13:13:54;;;;;;;5.82;2.72;;;24.10;57.90;;;;;;5111007;28;20028;-67
2021/06/13 13:16:23;;;;;;;10.40;3.58;;;24.20;57.30;;;;;;5110692;28;20150;-67